Time;durP1;ratioP1;P1;durP2;ratioP2;P2;SDS_P1;SDS_P2;PMS_P1;PMS_P2;Temp;Humidity;BMP_temperature;BMP_pressure;BME280_temperature;BME280_humidity;BME280_pressure;Samples;Min_cycle;Max_cycle;Signal;HPM_P1;HPM_P2
2022/08/29 00:00:27;;;;;;;;;;;25.40;43.50;;;;;;8428803;28;19950;-42
2022/08/29 00:04:28;;;;;;;;;;;25.40;43.50;;;;;;8432994;28;20402;-42
2022/08/29 00:08:28;;;;;;;;;;;25.40;43.40;;;;;;8434312;28;19961;-42
2022/08/29 00:12:29;;;;;;;;;;;25.40;43.50;;;;;;8434852;28;19920;-44
2022/08/29 00:16:29;;;;;;;;;;;25.40;43.50;;;;;;8434400;28;19927;-42
2022/08/29 00:20:31;;;;;;;;;;;25.40;43.50;;;;;;8433906;28;19916;-42
2022/08/29 00:24:32;;;;;;;;;;;25.40;43.50;;;;;;8434275;28;19921;-42
2022/08/29 00:28:32;;;;;;;;;;;25.40;43.50;;;;;;8434071;28;19991;-42
2022/08/29 00:32:36;;;;;;;;;;;25.40;43.50;;;;;;8433532;28;19924;-42
2022/08/29 00:36:36;;;;;;;;;;;25.40;43.50;;;;;;8433548;28;19959;-42
2022/08/29 00:40:39;;;;;;;;;;;25.30;43.50;;;;;;8433745;28;19923;-42
2022/08/29 00:44:40;;;;;;;;;;;25.30;43.50;;;;;;8432806;28;20367;-42
2022/08/29 00:48:40;;;;;;;;;;;25.30;43.50;;;;;;8415289;28;20014;-42
2022/08/29 00:52:43;;;;;;;;;;;25.30;43.50;;;;;;8433569;28;19920;-42
2022/08/29 00:56:44;;;;;;;;;;;25.30;43.50;;;;;;8432608;28;19951;-42
2022/08/29 01:00:45;;;;;;;;;;;25.30;43.50;;;;;;8433171;28;20265;-42
2022/08/29 01:04:46;;;;;;;;;;;25.30;43.70;;;;;;8431986;28;19920;-42
2022/08/29 01:08:47;;;;;;;;;;;25.30;43.60;;;;;;8432096;28;19923;-42
2022/08/29 01:12:47;;;;;;;;;;;25.30;43.50;;;;;;8432657;28;19912;-42
2022/08/29 01:16:49;;;;;;;;;;;25.30;43.50;;;;;;8431809;28;20375;-42
2022/08/29 01:21:06;;;;;;;;;;;25.30;43.50;;;;;;8432065;28;20385;-42
2022/08/29 01:25:11;;;;;;;;;;;25.20;43.50;;;;;;8432259;28;19919;-42
2022/08/29 01:29:12;;;;;;;;;;;25.30;43.60;;;;;;8431561;28;19931;-42
2022/08/29 01:33:12;;;;;;;;;;;25.20;43.50;;;;;;8432254;28;19913;-42
2022/08/29 01:37:14;;;;;;;;;;;25.30;43.60;;;;;;8431936;28;20284;-42
2022/08/29 01:41:15;;;;;;;;;;;25.20;43.50;;;;;;8431271;28;19923;-42
2022/08/29 01:45:16;;;;;;;;;;;25.20;43.60;;;;;;8431630;28;19924;-42
2022/08/29 01:49:17;;;;;;;;;;;25.20;43.60;;;;;;8431326;28;19931;-42
2022/08/29 01:53:17;;;;;;;;;;;25.20;43.60;;;;;;8431141;28;19912;-42
2022/08/29 01:57:18;;;;;;;;;;;25.20;43.50;;;;;;8431172;28;20381;-42
2022/08/29 02:01:23;;;;;;;;;;;25.20;43.60;;;;;;8431531;28;20328;-42
2022/08/29 02:05:23;;;;;;;;;;;25.20;43.60;;;;;;8430577;28;19966;-42
2022/08/29 02:09:24;;;;;;;;;;;25.20;43.60;;;;;;8430766;28;20276;-42
2022/08/29 02:13:25;;;;;;;;;;;25.20;43.60;;;;;;8431172;28;20300;-42
2022/08/29 02:17:25;;;;;;;;;;;25.20;43.60;;;;;;8430165;28;19924;-42
2022/08/29 02:21:27;;;;;;;;;;;25.20;43.60;;;;;;8430810;28;19927;-42
2022/08/29 02:25:40;;;;;;;;;;;25.20;43.60;;;;;;8429642;28;19912;-42
2022/08/29 02:29:40;;;;;;;;;;;25.20;43.60;;;;;;8429369;28;19931;-42
2022/08/29 02:33:41;;;;;;;;;;;25.10;43.50;;;;;;8430128;28;19912;-42
2022/08/29 02:37:41;;;;;;;;;;;25.10;43.60;;;;;;8430081;28;19918;-42
2022/08/29 02:41:42;;;;;;;;;;;25.10;43.60;;;;;;8429667;28;20372;-42
2022/08/29 02:45:42;;;;;;;;;;;25.10;43.60;;;;;;8430140;28;19965;-42
2022/08/29 02:49:43;;;;;;;;;;;25.10;43.60;;;;;;8429963;28;19920;-42
2022/08/29 02:53:43;;;;;;;;;;;25.10;43.60;;;;;;8429620;28;19920;-42
2022/08/29 02:57:44;;;;;;;;;;;25.10;43.60;;;;;;8429911;28;19917;-42
2022/08/29 03:01:44;;;;;;;;;;;25.10;43.60;;;;;;8429592;28;20007;-42
2022/08/29 03:05:45;;;;;;;;;;;25.10;43.60;;;;;;8429174;28;20420;-42
2022/08/29 03:09:45;;;;;;;;;;;25.10;43.60;;;;;;8429764;28;19924;-42
2022/08/29 03:13:46;;;;;;;;;;;25.10;43.60;;;;;;8429835;28;20007;-42
2022/08/29 03:17:47;;;;;;;;;;;25.10;43.60;;;;;;8428854;28;19926;-42
2022/08/29 03:21:47;;;;;;;;;;;25.00;43.60;;;;;;8429484;28;19916;-42
2022/08/29 03:25:48;;;;;;;;;;;25.10;43.60;;;;;;8429421;28;19912;-42
2022/08/29 03:29:48;;;;;;;;;;;25.00;43.60;;;;;;8428681;28;19968;-42
2022/08/29 03:33:49;;;;;;;;;;;25.00;43.60;;;;;;8429360;28;19962;-42
2022/08/29 03:37:52;;;;;;;;;;;25.00;43.60;;;;;;8431022;28;20384;-42
2022/08/29 03:41:53;;;;;;;;;;;25.00;43.60;;;;;;8416762;28;19962;-42
2022/08/29 03:45:53;;;;;;;;;;;25.00;43.60;;;;;;8435513;28;19912;-42
2022/08/29 03:49:54;;;;;;;;;;;25.00;43.60;;;;;;8435053;28;19936;-42
2022/08/29 03:53:54;;;;;;;;;;;25.00;43.60;;;;;;8434554;28;20066;-42
2022/08/29 03:57:55;;;;;;;;;;;25.00;43.60;;;;;;8434935;28;20265;-43
2022/08/29 04:01:56;;;;;;;;;;;25.00;43.60;;;;;;8435009;28;19939;-42
2022/08/29 04:05:57;;;;;;;;;;;25.00;43.60;;;;;;8416210;28;19916;-42
2022/08/29 04:09:58;;;;;;;;;;;25.00;43.60;;;;;;8416328;28;20283;-42
2022/08/29 04:13:58;;;;;;;;;;;25.00;43.60;;;;;;8433599;28;19923;-42
2022/08/29 04:18:00;;;;;;;;;;;24.90;43.60;;;;;;8433639;28;19916;-42
2022/08/29 04:22:01;;;;;;;;;;;24.90;43.60;;;;;;8434133;28;19931;-42
2022/08/29 04:26:02;;;;;;;;;;;24.90;43.60;;;;;;8434170;28;19924;-42
2022/08/29 04:30:05;;;;;;;;;;;24.90;43.60;;;;;;8433375;28;19928;-42
2022/08/29 04:34:06;;;;;;;;;;;24.90;43.60;;;;;;8433774;28;20412;-42
2022/08/29 04:38:07;;;;;;;;;;;24.90;43.60;;;;;;8433257;28;19929;-42
2022/08/29 04:42:07;;;;;;;;;;;24.90;43.60;;;;;;8415094;28;20295;-41
2022/08/29 04:46:08;;;;;;;;;;;24.90;43.60;;;;;;8433421;28;19923;-41
2022/08/29 04:50:10;;;;;;;;;;;24.90;43.60;;;;;;8431804;28;19924;-41
2022/08/29 04:54:11;;;;;;;;;;;24.80;43.60;;;;;;8433473;28;19912;-41
2022/08/29 04:58:11;;;;;;;;;;;24.90;43.60;;;;;;8432965;28;20387;-41
2022/08/29 05:02:12;;;;;;;;;;;24.90;43.60;;;;;;8432498;28;19920;-41
2022/08/29 05:06:13;;;;;;;;;;;24.90;43.70;;;;;;8432891;28;19962;-41
2022/08/29 05:10:16;;;;;;;;;;;24.90;43.60;;;;;;8432566;28;19924;-41
2022/08/29 05:14:16;;;;;;;;;;;24.80;43.60;;;;;;8432305;28;20241;-41
2022/08/29 05:18:17;;;;;;;;;;;24.90;43.60;;;;;;8432787;28;19943;-42
2022/08/29 05:22:18;;;;;;;;;;;24.80;43.60;;;;;;8432520;28;19942;-44
2022/08/29 05:26:19;;;;;;;;;;;24.80;43.60;;;;;;8431886;28;19923;-42
2022/08/29 05:30:19;;;;;;;;;;;24.80;43.60;;;;;;8431955;28;20018;-41
2022/08/29 05:34:20;;;;;;;;;;;24.80;43.60;;;;;;8432469;28;19927;-42
2022/08/29 05:38:20;;;;;;;;;;;24.80;43.60;;;;;;8431399;28;19916;-42
2022/08/29 05:42:22;;;;;;;;;;;24.80;43.60;;;;;;8432090;28;20288;-42
2022/08/29 05:46:22;;;;;;;;;;;24.80;43.60;;;;;;8431640;28;19985;-42
2022/08/29 05:50:23;;;;;;;;;;;24.80;43.70;;;;;;8430984;28;20005;-42
2022/08/29 05:54:23;;;;;;;;;;;24.80;43.60;;;;;;8431878;28;19947;-42
2022/08/29 05:58:24;;;;;;;;;;;24.80;43.60;;;;;;8431566;28;19923;-42
2022/08/29 06:02:24;;;;;;;;;;;24.80;43.70;;;;;;8430708;28;19965;-42
2022/08/29 06:06:26;;;;;;;;;;;24.80;43.60;;;;;;8430998;28;19959;-42
2022/08/29 06:10:27;;;;;;;;;;;24.80;43.70;;;;;;8430364;28;19924;-41
2022/08/29 06:14:28;;;;;;;;;;;24.80;43.70;;;;;;8430228;28;19920;-41
2022/08/29 06:18:28;;;;;;;;;;;24.80;43.70;;;;;;8430697;28;19923;-41
2022/08/29 06:22:28;;;;;;;;;;;24.80;43.70;;;;;;8430583;28;20375;-42
2022/08/29 06:26:30;;;;;;;;;;;24.80;43.70;;;;;;8430020;28;19916;-41
2022/08/29 06:30:31;;;;;;;;;;;24.80;43.70;;;;;;8430381;28;19942;-42
2022/08/29 06:34:32;;;;;;;;;;;24.80;43.70;;;;;;8430489;28;19919;-42
2022/08/29 06:38:33;;;;;;;;;;;24.80;43.70;;;;;;8429741;28;19920;-42
2022/08/29 06:42:33;;;;;;;;;;;24.80;43.60;;;;;;8430088;28;20371;-43
2022/08/29 06:46:35;;;;;;;;;;;24.80;43.60;;;;;;8429952;28;19916;-43
2022/08/29 06:50:37;;;;;;;;;;;24.80;43.60;;;;;;8429350;28;19978;-41
2022/08/29 06:54:37;;;;;;;;;;;24.80;43.60;;;;;;8430199;28;20414;-42
2022/08/29 06:58:38;;;;;;;;;;;24.80;43.60;;;;;;8429708;28;19916;-42
2022/08/29 07:02:38;;;;;;;;;;;24.80;43.60;;;;;;8429250;28;20376;-41
2022/08/29 07:06:39;;;;;;;;;;;24.80;43.60;;;;;;8414392;28;19939;-42
2022/08/29 07:10:42;;;;;;;;;;;24.80;43.60;;;;;;8429850;28;20019;-41
2022/08/29 07:14:43;;;;;;;;;;;24.80;43.60;;;;;;8434525;28;19920;-42
2022/08/29 07:18:44;;;;;;;;;;;24.80;43.60;;;;;;8436380;28;20019;-42
2022/08/29 07:22:49;;;;;;;;;;;24.80;43.60;;;;;;8436448;28;20368;-42
2022/08/29 07:26:50;;;;;;;;;;;24.80;43.60;;;;;;8435622;28;20009;-42
2022/08/29 07:30:50;;;;;;;;;;;24.80;43.60;;;;;;8436219;28;20007;-41
2022/08/29 07:34:51;;;;;;;;;;;24.80;43.60;;;;;;8436681;28;19912;-41
2022/08/29 07:38:51;;;;;;;;;;;24.80;43.60;;;;;;8435347;28;19916;-42
2022/08/29 07:42:52;;;;;;;;;;;24.80;43.50;;;;;;8435627;28;20049;-41
2022/08/29 07:46:54;;;;;;;;;;;24.80;43.50;;;;;;8435642;28;19916;-41
2022/08/29 07:50:54;;;;;;;;;;;24.80;43.60;;;;;;8434526;28;19920;-42
2022/08/29 07:54:54;;;;;;;;;;;24.80;43.50;;;;;;8435542;28;20449;-41
2022/08/29 07:58:56;;;;;;;;;;;24.80;43.50;;;;;;8430610;28;19916;-42
2022/08/29 08:02:56;;;;;;;;;;;24.90;43.60;;;;;;8432033;28;19920;-41
2022/08/29 08:06:57;;;;;;;;;;;24.90;43.60;;;;;;8438005;28;19916;-42
2022/08/29 08:10:57;;;;;;;;;;;24.90;43.60;;;;;;8409121;28;19931;-41
2022/08/29 08:14:57;;;;;;;;;;;24.90;43.50;;;;;;8401268;28;20399;-42
2022/08/29 08:18:58;;;;;;;;;;;24.90;43.60;;;;;;8449031;28;19916;-41
2022/08/29 08:22:59;;;;;;;;;;;24.90;43.50;;;;;;8451816;28;20432;-42
2022/08/29 08:26:59;;;;;;;;;;;25.00;43.50;;;;;;8433255;28;19916;-42
2022/08/29 08:31:00;;;;;;;;;;;25.00;43.50;;;;;;8439474;28;19924;-41
2022/08/29 08:35:00;;;;;;;;;;;24.90;43.50;;;;;;8433885;28;20007;-41
2022/08/29 08:39:01;;;;;;;;;;;25.00;43.50;;;;;;8433414;28;19999;-42
2022/08/29 08:43:02;;;;;;;;;;;25.00;43.50;;;;;;8445234;28;20228;-41
2022/08/29 08:47:05;;;;;;;;;;;25.00;43.40;;;;;;8460697;28;20288;-41
2022/08/29 08:51:20;;;;;;;;;;;25.00;43.50;;;;;;8415057;28;19989;-41
2022/08/29 08:55:39;;;;;;;;;;;25.00;43.50;;;;;;8433618;28;19980;-42
2022/08/29 08:59:45;;;;;;;;;;;25.00;43.50;;;;;;8432723;28;19969;-42
2022/08/29 09:03:54;;;;;;;;;;;25.10;43.50;;;;;;8414805;28;19920;-41
2022/08/29 09:07:59;;;;;;;;;;;25.10;43.40;;;;;;8432581;28;20357;-42
2022/08/29 09:12:09;;;;;;;;;;;25.00;43.40;;;;;;8431975;28;19938;-41
2022/08/29 09:16:17;;;;;;;;;;;25.10;43.40;;;;;;8432871;28;19927;-42
2022/08/29 09:20:19;;;;;;;;;;;25.10;43.40;;;;;;8432132;28;19958;-41
2022/08/29 09:24:35;;;;;;;;;;;25.10;43.40;;;;;;8432588;28;19938;-41
2022/08/29 09:28:35;;;;;;;;;;;25.10;43.40;;;;;;8441172;28;19923;-41
2022/08/29 09:32:50;;;;;;;;;;;25.10;43.30;;;;;;8400278;28;19930;-41
2022/08/29 09:36:51;;;;;;;;;;;25.20;43.40;;;;;;8431395;28;19916;-41
2022/08/29 09:40:54;;;;;;;;;;;25.20;43.40;;;;;;8430360;28;19917;-40
2022/08/29 09:44:56;;;;;;;;;;;25.20;43.40;;;;;;8431107;28;19916;-41
2022/08/29 09:48:56;;;;;;;;;;;25.20;43.40;;;;;;8431896;28;19963;-41
2022/08/29 09:53:01;;;;;;;;;;;25.20;43.30;;;;;;8431510;28;19931;-41
2022/08/29 09:57:09;;;;;;;;;;;25.30;43.30;;;;;;8431016;28;19920;-41
2022/08/29 10:01:17;;;;;;;;;;;25.20;43.30;;;;;;8431695;28;19948;-41
2022/08/29 10:05:29;;;;;;;;;;;25.30;43.30;;;;;;8429478;28;20384;-42
2022/08/29 10:09:29;;;;;;;;;;;25.30;43.30;;;;;;8431334;28;19930;-42
2022/08/29 10:13:33;;;;;;;;;;;25.30;43.30;;;;;;8430956;28;20372;-42
2022/08/29 10:22:04;;;;;;;;;;;25.40;43.40;;;;;;8436661;28;20426;-42
2022/08/29 10:26:12;;;;;;;;;;;25.40;43.40;;;;;;8430474;28;19912;-42
2022/08/29 10:30:15;;;;;;;;;;;25.40;43.30;;;;;;8430429;28;19924;-42
2022/08/29 10:34:37;;;;;;;;;;;25.40;43.30;;;;;;8412195;28;20299;-42
2022/08/29 10:38:54;;;;;;;;;;;25.40;43.30;;;;;;8429928;28;19917;-42
2022/08/29 10:43:05;;;;;;;;;;;25.40;43.20;;;;;;8430168;28;19980;-41
2022/08/29 10:47:11;;;;;;;;;;;25.50;43.30;;;;;;8429011;28;19922;-42
2022/08/29 10:51:18;;;;;;;;;;;25.50;43.20;;;;;;8430152;28;19927;-42
2022/08/29 10:55:19;;;;;;;;;;;25.50;43.20;;;;;;8429909;28;19927;-41
2022/08/29 10:59:28;;;;;;;;;;;25.50;43.20;;;;;;8429480;28;19959;-41
2022/08/29 11:03:34;;;;;;;;;;;25.50;43.20;;;;;;8429794;28;19962;-41
2022/08/29 11:07:44;;;;;;;;;;;25.60;43.20;;;;;;8429792;28;19916;-41
2022/08/29 11:11:47;;;;;;;;;;;25.60;43.20;;;;;;8429412;28;19924;-42
2022/08/29 11:15:56;;;;;;;;;;;25.60;43.10;;;;;;8429774;28;19920;-41
2022/08/29 11:20:12;;;;;;;;;;;25.60;43.10;;;;;;8429792;28;19956;-41
2022/08/29 11:24:14;;;;;;;;;;;25.60;43.10;;;;;;8429187;28;19923;-42
2022/08/29 11:28:32;;;;;;;;;;;25.60;43.10;;;;;;8429674;28;20323;-41
2022/08/29 11:32:51;;;;;;;;;;;25.60;43.10;;;;;;8428851;28;19928;-41
2022/08/29 11:36:55;;;;;;;;;;;25.60;43.10;;;;;;8429506;28;19916;-41
2022/08/29 11:41:08;;;;;;;;;;;25.70;43.10;;;;;;8429216;28;19962;-41
2022/08/29 11:45:12;;;;;;;;;;;25.70;43.10;;;;;;8429232;28;20037;-41
2022/08/29 11:49:41;;;;;;;;;;;25.60;43.10;;;;;;8429465;28;19913;-41
2022/08/29 11:53:42;;;;;;;;;;;25.70;43.10;;;;;;8406897;28;19916;-41
2022/08/29 11:57:50;;;;;;;;;;;25.70;43.10;;;;;;8428306;28;22334;-41
2022/08/29 12:01:54;;;;;;;;;;;25.80;43.20;;;;;;8435562;28;19948;-41
2022/08/29 12:05:58;;;;;;;;;;;25.80;43.10;;;;;;8434912;28;20273;-41
2022/08/29 12:09:59;;;;;;;;;;;25.80;43.00;;;;;;8435165;28;19932;-42
2022/08/29 12:14:00;;;;;;;;;;;25.80;43.00;;;;;;8434834;28;20380;-41
2022/08/29 12:18:06;;;;;;;;;;;25.90;43.60;;;;;;8434155;28;20016;-41
2022/08/29 12:22:07;;;;;;;;;;;25.90;43.00;;;;;;8434696;28;20428;-41
2022/08/29 12:26:27;;;;;;;;;;;25.90;43.00;;;;;;8415858;28;19916;-42
2022/08/29 12:30:39;;;;;;;;;;;25.90;42.90;;;;;;8434003;28;19942;-42
2022/08/29 12:34:58;;;;;;;;;;;25.90;42.90;;;;;;8434105;28;20234;-42
2022/08/29 12:39:18;;;;;;;;;;;25.90;42.90;;;;;;8433583;28;20391;-42
2022/08/29 12:43:41;;;;;;;;;;;25.90;42.90;;;;;;8416238;28;20003;-42
2022/08/29 12:47:46;;;;;;;;;;;26.00;42.90;;;;;;8433519;28;19920;-42
2022/08/29 12:51:54;;;;;;;;;;;26.00;42.90;;;;;;8415239;28;19924;-42
2022/08/29 12:55:56;;;;;;;;;;;26.00;42.90;;;;;;8433593;28;19916;-42
2022/08/29 12:59:57;;;;;;;;;;;26.00;42.80;;;;;;8432888;28;19920;-42
2022/08/29 13:04:01;;;;;;;;;;;26.00;42.80;;;;;;8433150;28;20007;-42
2022/08/29 13:08:12;;;;;;;;;;;26.00;42.80;;;;;;8433021;28;19923;-42
2022/08/29 13:12:16;;;;;;;;;;;26.00;42.80;;;;;;8405669;28;19926;-42
2022/08/29 13:16:24;;;;;;;;;;;26.00;42.80;;;;;;8426525;28;19946;-43
2022/08/29 13:20:37;;;;;;;;;;;26.10;42.80;;;;;;8414050;28;19931;-42
2022/08/29 13:24:37;;;;;;;;;;;26.10;42.80;;;;;;8432504;28;19939;-42
2022/08/29 13:28:40;;;;;;;;;;;26.10;42.80;;;;;;8432417;28;19923;-42
2022/08/29 13:32:46;;;;;;;;;;;26.10;42.80;;;;;;8431969;28;19959;-42
2022/08/29 13:36:48;;;;;;;;;;;26.10;42.80;;;;;;8432503;28;19916;-42
2022/08/29 13:40:50;;;;;;;;;;;26.10;42.70;;;;;;8432198;28;19919;-42
2022/08/29 13:45:02;;;;;;;;;;;26.20;42.80;;;;;;8431372;28;19970;-42
2022/08/29 13:49:03;;;;;;;;;;;26.20;42.70;;;;;;8431687;28;19981;-41
2022/08/29 13:53:04;;;;;;;;;;;26.10;42.70;;;;;;8413553;28;20001;-41
2022/08/29 13:57:04;;;;;;;;;;;26.20;42.70;;;;;;8431485;28;19920;-41
2022/08/29 14:01:05;;;;;;;;;;;26.20;42.70;;;;;;8431451;28;20424;-41
2022/08/29 14:05:05;;;;;;;;;;;26.20;42.70;;;;;;8430834;28;20387;-41
2022/08/29 14:09:06;;;;;;;;;;;26.20;42.70;;;;;;8431081;28;19923;-41
2022/08/29 14:13:08;;;;;;;;;;;26.20;42.70;;;;;;8431149;28;19928;-40
2022/08/29 14:17:09;;;;;;;;;;;26.20;42.60;;;;;;8430420;28;19970;-41
2022/08/29 14:21:09;;;;;;;;;;;26.20;42.60;;;;;;8431162;28;20339;-41
2022/08/29 14:25:10;;;;;;;;;;;26.20;42.60;;;;;;8430844;28;20010;-41
2022/08/29 14:29:11;;;;;;;;;;;26.30;42.70;;;;;;8430013;28;19916;-41
2022/08/29 14:33:11;;;;;;;;;;;26.30;42.60;;;;;;8430607;28;19912;-41
2022/08/29 14:37:13;;;;;;;;;;;26.30;42.60;;;;;;8430612;28;19924;-41
2022/08/29 14:41:14;;;;;;;;;;;26.20;42.60;;;;;;8429837;28;19913;-41
2022/08/29 14:45:14;;;;;;;;;;;26.30;42.60;;;;;;8430076;28;19922;-41
2022/08/29 14:49:15;;;;;;;;;;;26.30;42.60;;;;;;8430190;28;20376;-41
2022/08/29 14:53:15;;;;;;;;;;;26.30;42.60;;;;;;8429938;28;19912;-41
2022/08/29 14:57:16;;;;;;;;;;;26.30;42.60;;;;;;8430198;28;19916;-41
2022/08/29 15:01:16;;;;;;;;;;;26.30;42.60;;;;;;8430061;28;19927;-41
2022/08/29 15:05:17;;;;;;;;;;;26.30;43.10;;;;;;8429365;28;19924;-41
2022/08/29 15:09:17;;;;;;;;;;;26.30;42.60;;;;;;8429557;28;19923;-41
2022/08/29 15:13:18;;;;;;;;;;;26.30;42.60;;;;;;8430253;28;19920;-41
2022/08/29 15:17:18;;;;;;;;;;;26.30;42.60;;;;;;8429217;28;19959;-41
2022/08/29 15:21:19;;;;;;;;;;;26.30;42.50;;;;;;8411592;28;19924;-41
2022/08/29 15:25:20;;;;;;;;;;;26.30;42.50;;;;;;8411420;28;19965;-41
2022/08/29 15:29:20;;;;;;;;;;;26.30;42.50;;;;;;8428811;28;19962;-41
2022/08/29 15:33:21;;;;;;;;;;;26.30;42.50;;;;;;8430685;28;20429;-41
2022/08/29 15:37:22;;;;;;;;;;;26.30;42.50;;;;;;8435960;28;19947;-41
2022/08/29 15:41:22;;;;;;;;;;;26.30;42.50;;;;;;8435422;28;19912;-41
2022/08/29 15:45:23;;;;;;;;;;;26.40;42.60;;;;;;8435619;28;20284;-41
2022/08/29 15:49:24;;;;;;;;;;;26.30;42.50;;;;;;8435430;28;19920;-41
2022/08/29 15:53:25;;;;;;;;;;;26.40;42.50;;;;;;8435215;28;19985;-41
2022/08/29 15:57:25;;;;;;;;;;;26.40;42.50;;;;;;8435138;28;19920;-41
2022/08/29 16:01:26;;;;;;;;;;;26.40;42.50;;;;;;8435061;28;19912;-41
2022/08/29 16:05:27;;;;;;;;;;;26.30;42.50;;;;;;8434799;28;19917;-41
2022/08/29 16:09:27;;;;;;;;;;;26.40;42.50;;;;;;8434048;28;19923;-41
2022/08/29 16:13:28;;;;;;;;;;;26.40;42.50;;;;;;8435028;28;20265;-41
2022/08/29 16:17:30;;;;;;;;;;;26.40;42.50;;;;;;8433970;28;20003;-41
2022/08/29 16:21:31;;;;;;;;;;;26.40;42.50;;;;;;8434347;28;20254;-41
2022/08/29 16:25:32;;;;;;;;;;;26.40;42.50;;;;;;8434611;28;19920;-40
2022/08/29 16:29:32;;;;;;;;;;;26.30;42.50;;;;;;8433704;28;20284;-41
2022/08/29 16:33:33;;;;;;;;;;;26.40;42.50;;;;;;8434276;28;20297;-41
2022/08/29 16:37:33;;;;;;;;;;;26.40;42.50;;;;;;8433903;28;20319;-41
2022/08/29 16:41:34;;;;;;;;;;;26.40;42.50;;;;;;8433335;28;19916;-41
2022/08/29 16:45:34;;;;;;;;;;;26.30;42.40;;;;;;8432559;28;19916;-41
2022/08/29 16:49:35;;;;;;;;;;;26.30;42.50;;;;;;8433570;28;19920;-41
2022/08/29 16:53:36;;;;;;;;;;;26.30;42.50;;;;;;8433258;28;19916;-41
2022/08/29 16:57:36;;;;;;;;;;;26.30;42.40;;;;;;8433406;28;20280;-41
2022/08/29 17:01:38;;;;;;;;;;;26.30;42.40;;;;;;8433527;28;19943;-41
2022/08/29 17:05:39;;;;;;;;;;;26.30;42.50;;;;;;8432796;28;19965;-41
2022/08/29 17:17:40;;;;;;;;;;;26.30;42.50;;;;;;8432666;28;19924;-42
2022/08/29 17:21:41;;;;;;;;;;;26.30;42.60;;;;;;8432733;28;19922;-42
2022/08/29 17:25:41;;;;;;;;;;;26.30;42.60;;;;;;8432714;28;19916;-42
2022/08/29 17:29:45;;;;;;;;;;;26.30;42.60;;;;;;8413970;28;20011;-42
2022/08/29 17:33:46;;;;;;;;;;;26.30;42.60;;;;;;8432433;28;19916;-42
2022/08/29 17:37:48;;;;;;;;;;;26.30;42.60;;;;;;8432178;28;19942;-42
2022/08/29 17:41:49;;;;;;;;;;;26.30;42.60;;;;;;8431284;28;19917;-42
2022/08/29 17:45:50;;;;;;;;;;;26.30;42.60;;;;;;8431731;28;19924;-42
2022/08/29 17:49:50;;;;;;;;;;;26.30;42.60;;;;;;8431655;28;19924;-42
2022/08/29 17:53:51;;;;;;;;;;;26.20;42.60;;;;;;8430916;28;20288;-43
2022/08/29 17:57:51;;;;;;;;;;;26.20;42.50;;;;;;8431417;28;19917;-42
2022/08/29 18:01:53;;;;;;;;;;;26.30;42.60;;;;;;8431159;28;20014;-42
2022/08/29 18:05:53;;;;;;;;;;;26.20;42.50;;;;;;8430746;28;19916;-42
2022/08/29 18:09:54;;;;;;;;;;;26.20;42.50;;;;;;8431114;28;19942;-42
2022/08/29 18:13:55;;;;;;;;;;;26.30;42.60;;;;;;8430825;28;19916;-42
2022/08/29 18:17:55;;;;;;;;;;;26.30;42.60;;;;;;8430238;28;19980;-42
2022/08/29 18:21:56;;;;;;;;;;;26.20;43.10;;;;;;8430858;28;20003;-42
2022/08/29 18:25:56;;;;;;;;;;;26.20;42.60;;;;;;8430754;28;19962;-42
2022/08/29 18:29:57;;;;;;;;;;;26.20;42.50;;;;;;8429995;28;19984;-42
2022/08/29 18:33:57;;;;;;;;;;;26.30;42.60;;;;;;8430393;28;19920;-42
2022/08/29 18:37:58;;;;;;;;;;;26.20;42.60;;;;;;8430286;28;19916;-41
2022/08/29 18:41:58;;;;;;;;;;;26.20;42.70;;;;;;8429590;28;19920;-41
2022/08/29 18:46:01;;;;;;;;;;;26.20;42.60;;;;;;8430042;28;20276;-41
2022/08/29 18:54:21;;;;;;;;;;;26.20;42.60;;;;;;8429611;28;20015;-41
2022/08/29 18:58:23;;;;;;;;;;;26.20;42.60;;;;;;8429755;28;19916;-42
2022/08/29 19:02:25;;;;;;;;;;;26.20;42.70;;;;;;8429573;28;20011;-42
2022/08/29 19:06:26;;;;;;;;;;;26.20;42.70;;;;;;8429493;28;19923;-42
2022/08/29 19:10:27;;;;;;;;;;;26.20;42.70;;;;;;8427982;28;20361;-41
2022/08/29 19:14:29;;;;;;;;;;;26.20;42.70;;;;;;8429243;28;19920;-42
2022/08/29 19:18:29;;;;;;;;;;;26.20;42.70;;;;;;8429810;28;19962;-42
2022/08/29 19:22:30;;;;;;;;;;;26.20;42.70;;;;;;8429338;28;19912;-42
2022/08/29 19:26:33;;;;;;;;;;;26.20;42.70;;;;;;8428903;28;19923;-41
2022/08/29 19:30:33;;;;;;;;;;;26.20;42.80;;;;;;8429554;28;20351;-40
2022/08/29 19:34:34;;;;;;;;;;;26.20;42.70;;;;;;8429566;28;19916;-41
2022/08/29 19:38:35;;;;;;;;;;;26.20;42.80;;;;;;8428998;28;19916;-42
2022/08/29 19:42:36;;;;;;;;;;;26.20;42.80;;;;;;8429315;28;19922;-41
2022/08/29 19:46:37;;;;;;;;;;;26.20;42.80;;;;;;8429140;28;19917;-41
2022/08/29 19:50:39;;;;;;;;;;;26.20;42.80;;;;;;8428889;28;19924;-41
2022/08/29 19:54:39;;;;;;;;;;;26.20;42.80;;;;;;8429248;28;19958;-42
2022/08/29 19:58:41;;;;;;;;;;;26.20;42.80;;;;;;8429145;28;20283;-40
2022/08/29 20:02:43;;;;;;;;;;;26.20;42.80;;;;;;8428434;28;19939;-40
2022/08/29 20:06:45;;;;;;;;;;;26.20;42.80;;;;;;8428811;28;19969;-42
2022/08/29 20:10:45;;;;;;;;;;;26.20;42.80;;;;;;8429121;28;19927;-41
2022/08/29 20:14:51;;;;;;;;;;;26.10;42.80;;;;;;8428291;28;19920;-41
2022/08/29 20:18:51;;;;;;;;;;;26.20;42.90;;;;;;8429167;28;20003;-42
2022/08/29 20:22:51;;;;;;;;;;;26.20;42.80;;;;;;8434643;28;20361;-42
2022/08/29 20:26:52;;;;;;;;;;;26.10;42.80;;;;;;8434128;28;20373;-42
2022/08/29 20:30:53;;;;;;;;;;;26.10;42.80;;;;;;8434835;28;19920;-42
2022/08/29 20:34:53;;;;;;;;;;;26.10;42.80;;;;;;8416321;28;19923;-42
2022/08/29 20:38:53;;;;;;;;;;;26.20;42.90;;;;;;8415482;28;20008;-41
2022/08/29 20:42:54;;;;;;;;;;;26.10;42.80;;;;;;8434241;28;20007;-41
2022/08/29 20:46:54;;;;;;;;;;;26.10;42.80;;;;;;8433874;28;19912;-41
2022/08/29 20:51:03;;;;;;;;;;;26.10;42.90;;;;;;8433516;28;19924;-41
2022/08/29 20:55:04;;;;;;;;;;;26.10;42.90;;;;;;8433838;28;19917;-42
2022/08/29 20:59:04;;;;;;;;;;;26.10;42.90;;;;;;8433627;28;19958;-41
2022/08/29 21:07:24;;;;;;;;;;;26.10;42.90;;;;;;8437420;28;19964;-41
2022/08/29 21:11:25;;;;;;;;;;;26.10;42.90;;;;;;8432498;28;19932;-41
2022/08/29 21:15:25;;;;;;;;;;;26.10;42.90;;;;;;8433174;28;19920;-42
2022/08/29 21:19:28;;;;;;;;;;;26.10;42.90;;;;;;8432943;28;19916;-41
2022/08/29 21:23:29;;;;;;;;;;;26.10;42.90;;;;;;8432331;28;19916;-42
2022/08/29 21:27:29;;;;;;;;;;;26.00;42.80;;;;;;8432950;28;20423;-42
2022/08/29 21:31:30;;;;;;;;;;;26.10;42.90;;;;;;8431922;28;19939;-41
2022/08/29 21:35:30;;;;;;;;;;;26.10;42.90;;;;;;8432037;28;20053;-42
2022/08/29 21:39:31;;;;;;;;;;;26.00;42.80;;;;;;8414202;28;20011;-41
2022/08/29 21:43:31;;;;;;;;;;;26.10;42.90;;;;;;8432409;28;19913;-42
2022/08/29 21:47:32;;;;;;;;;;;26.10;42.90;;;;;;8431521;28;19927;-42
2022/08/29 21:51:33;;;;;;;;;;;26.00;42.80;;;;;;8432050;28;19930;-42
2022/08/29 21:55:33;;;;;;;;;;;26.00;42.90;;;;;;8432048;28;19920;-41
2022/08/29 21:59:34;;;;;;;;;;;26.00;42.90;;;;;;8431277;28;20011;-42
2022/08/29 22:03:34;;;;;;;;;;;26.00;42.90;;;;;;8431088;28;20431;-42
2022/08/29 22:07:36;;;;;;;;;;;26.00;42.90;;;;;;8388301;28;19912;-41
2022/08/29 22:11:37;;;;;;;;;;;26.00;42.90;;;;;;8431275;28;19978;-43
2022/08/29 22:19:56;;;;;;;;;;;26.00;42.90;;;;;;8431297;28;19923;-42
2022/08/29 22:23:57;;;;;;;;;;;26.00;42.90;;;;;;8430474;28;20273;-41
2022/08/29 22:27:58;;;;;;;;;;;26.00;42.90;;;;;;8430940;28;19916;-41
2022/08/29 22:31:59;;;;;;;;;;;26.00;42.90;;;;;;8430699;28;20388;-41
2022/08/29 22:35:59;;;;;;;;;;;26.00;42.90;;;;;;8430287;28;19920;-41
2022/08/29 22:40:00;;;;;;;;;;;25.90;42.90;;;;;;8430440;28;19970;-41
2022/08/29 22:44:00;;;;;;;;;;;25.90;43.00;;;;;;8429491;28;19959;-41
2022/08/29 22:48:01;;;;;;;;;;;25.90;43.00;;;;;;8430286;28;19916;-41
2022/08/29 22:52:02;;;;;;;;;;;25.90;42.90;;;;;;8430127;28;19978;-41
2022/08/29 22:56:03;;;;;;;;;;;25.90;42.90;;;;;;8430493;28;20380;-41
2022/08/29 23:00:04;;;;;;;;;;;25.90;43.00;;;;;;8429543;28;19924;-41
2022/08/29 23:04:05;;;;;;;;;;;25.90;43.00;;;;;;8430006;28;20380;-41
2022/08/29 23:08:05;;;;;;;;;;;25.90;43.00;;;;;;8429438;28;19916;-41
2022/08/29 23:12:06;;;;;;;;;;;25.90;43.00;;;;;;8429754;28;20295;-41
2022/08/29 23:16:07;;;;;;;;;;;25.90;43.00;;;;;;8430142;28;20437;-41
2022/08/29 23:20:09;;;;;;;;;;;25.90;43.00;;;;;;8429300;28;19920;-41
2022/08/29 23:24:10;;;;;;;;;;;25.90;43.00;;;;;;8429970;28;20469;-41
2022/08/29 23:28:10;;;;;;;;;;;25.90;43.00;;;;;;8429596;28;20288;-41
2022/08/29 23:32:11;;;;;;;;;;;25.90;43.00;;;;;;8428928;28;19927;-40
2022/08/29 23:36:11;;;;;;;;;;;25.90;43.00;;;;;;8429718;28;19912;-41
2022/08/29 23:40:11;;;;;;;;;;;25.90;43.00;;;;;;8429364;28;20277;-41
2022/08/29 23:44:12;;;;;;;;;;;25.90;43.10;;;;;;8428885;28;19916;-41
2022/08/29 23:48:13;;;;;;;;;;;25.80;43.00;;;;;;8429542;28;19946;-42
2022/08/29 23:52:13;;;;;;;;;;;25.90;43.00;;;;;;8429337;28;20249;-42